sensor_id;sensor_type;location;lat;lon;timestamp;P1;durP1;ratioP1;P2;durP2;ratioP2
56629;SDS011;42502;40.732;-74.254;2023-07-30T00:00:12;2.40;;;2.20;;
56629;SDS011;42502;40.732;-74.254;2023-07-30T00:02:14;2.20;;;2.10;;
56629;SDS011;42502;40.732;-74.254;2023-07-30T00:04:14;2.40;;;2.20;;
56629;SDS011;42502;40.732;-74.254;2023-07-30T00:06:15;2.75;;;2.55;;
56629;SDS011;42502;40.732;-74.254;2023-07-30T00:08:18;2.70;;;2.50;;
56629;SDS011;42502;40.732;-74.254;2023-07-30T00:10:19;2.17;;;2.08;;
56629;SDS011;42502;40.732;-74.254;2023-07-30T00:12:21;2.72;;;2.47;;
56629;SDS011;42502;40.732;-74.254;2023-07-30T00:14:22;2.50;;;2.30;;
56629;SDS011;42502;40.732;-74.254;2023-07-30T00:16:23;2.58;;;2.38;;
56629;SDS011;42502;40.732;-74.254;2023-07-30T00:18:30;2.65;;;2.42;;
56629;SDS011;42502;40.732;-74.254;2023-07-30T00:20:30;2.47;;;2.35;;
56629;SDS011;42502;40.732;-74.254;2023-07-30T00:22:31;2.60;;;2.40;;
56629;SDS011;42502;40.732;-74.254;2023-07-30T00:24:32;2.67;;;2.47;;
56629;SDS011;42502;40.732;-74.254;2023-07-30T00:26:35;2.53;;;2.33;;
56629;SDS011;42502;40.732;-74.254;2023-07-30T00:28:38;2.80;;;2.60;;
56629;SDS011;42502;40.732;-74.254;2023-07-30T00:30:39;2.88;;;2.67;;
56629;SDS011;42502;40.732;-74.254;2023-07-30T00:32:40;2.35;;;2.15;;
56629;SDS011;42502;40.732;-74.254;2023-07-30T00:34:43;2.75;;;2.55;;
56629;SDS011;42502;40.732;-74.254;2023-07-30T00:36:44;2.75;;;2.55;;
56629;SDS011;42502;40.732;-74.254;2023-07-30T00:38:45;3.60;;;2.35;;
56629;SDS011;42502;40.732;-74.254;2023-07-30T00:40:46;2.60;;;2.40;;
56629;SDS011;42502;40.732;-74.254;2023-07-30T00:42:47;2.80;;;2.60;;
56629;SDS011;42502;40.732;-74.254;2023-07-30T00:44:50;2.33;;;2.22;;
56629;SDS011;42502;40.732;-74.254;2023-07-30T00:46:57;2.35;;;2.15;;
56629;SDS011;42502;40.732;-74.254;2023-07-30T00:48:58;2.70;;;2.50;;
56629;SDS011;42502;40.732;-74.254;2023-07-30T00:50:59;2.42;;;2.22;;
56629;SDS011;42502;40.732;-74.254;2023-07-30T00:53:00;2.92;;;2.65;;
56629;SDS011;42502;40.732;-74.254;2023-07-30T00:55:02;2.50;;;2.30;;
56629;SDS011;42502;40.732;-74.254;2023-07-30T00:57:03;2.38;;;2.28;;
56629;SDS011;42502;40.732;-74.254;2023-07-30T00:59:04;3.42;;;2.55;;
56629;SDS011;42502;40.732;-74.254;2023-07-30T01:01:05;2.28;;;2.17;;
56629;SDS011;42502;40.732;-74.254;2023-07-30T01:03:09;2.15;;;2.00;;
56629;SDS011;42502;40.732;-74.254;2023-07-30T01:05:10;2.20;;;2.10;;
56629;SDS011;42502;40.732;-74.254;2023-07-30T01:07:14;2.15;;;2.05;;
56629;SDS011;42502;40.732;-74.254;2023-07-30T01:09:18;2.47;;;2.28;;
56629;SDS011;42502;40.732;-74.254;2023-07-30T01:11:19;3.20;;;2.33;;
56629;SDS011;42502;40.732;-74.254;2023-07-30T01:13:23;2.45;;;2.35;;
56629;SDS011;42502;40.732;-74.254;2023-07-30T01:15:28;2.05;;;1.95;;
56629;SDS011;42502;40.732;-74.254;2023-07-30T01:17:30;2.45;;;2.03;;
56629;SDS011;42502;40.732;-74.254;2023-07-30T01:19:31;2.75;;;2.55;;
56629;SDS011;42502;40.732;-74.254;2023-07-30T01:21:33;2.30;;;2.10;;
56629;SDS011;42502;40.732;-74.254;2023-07-30T01:23:37;2.55;;;2.25;;
56629;SDS011;42502;40.732;-74.254;2023-07-30T01:25:38;2.15;;;2.03;;
56629;SDS011;42502;40.732;-74.254;2023-07-30T01:27:41;2.00;;;1.90;;
56629;SDS011;42502;40.732;-74.254;2023-07-30T01:29:53;2.58;;;2.15;;
56629;SDS011;42502;40.732;-74.254;2023-07-30T01:32:01;2.20;;;2.00;;
56629;SDS011;42502;40.732;-74.254;2023-07-30T01:34:05;2.35;;;2.20;;
56629;SDS011;42502;40.732;-74.254;2023-07-30T01:36:08;2.35;;;2.15;;
56629;SDS011;42502;40.732;-74.254;2023-07-30T01:38:13;2.45;;;2.25;;
56629;SDS011;42502;40.732;-74.254;2023-07-30T01:40:14;2.20;;;2.10;;
56629;SDS011;42502;40.732;-74.254;2023-07-30T01:42:15;2.20;;;2.00;;
56629;SDS011;42502;40.732;-74.254;2023-07-30T01:44:19;2.10;;;1.90;;
56629;SDS011;42502;40.732;-74.254;2023-07-30T01:46:20;2.38;;;2.17;;
56629;SDS011;42502;40.732;-74.254;2023-07-30T01:48:21;1.88;;;1.77;;
56629;SDS011;42502;40.732;-74.254;2023-07-30T01:50:24;1.92;;;1.83;;
56629;SDS011;42502;40.732;-74.254;2023-07-30T01:52:25;2.63;;;1.92;;
56629;SDS011;42502;40.732;-74.254;2023-07-30T01:54:31;2.65;;;2.13;;
56629;SDS011;42502;40.732;-74.254;2023-07-30T01:56:32;2.40;;;2.20;;
56629;SDS011;42502;40.732;-74.254;2023-07-30T01:58:33;2.33;;;1.90;;
56629;SDS011;42502;40.732;-74.254;2023-07-30T02:00:40;2.55;;;2.35;;
56629;SDS011;42502;40.732;-74.254;2023-07-30T02:02:50;2.00;;;1.90;;
56629;SDS011;42502;40.732;-74.254;2023-07-30T02:04:54;1.92;;;1.83;;
56629;SDS011;42502;40.732;-74.254;2023-07-30T02:06:55;2.17;;;1.98;;
56629;SDS011;42502;40.732;-74.254;2023-07-30T02:08:55;1.73;;;1.63;;
56629;SDS011;42502;40.732;-74.254;2023-07-30T02:10:57;2.60;;;1.83;;
56629;SDS011;42502;40.732;-74.254;2023-07-30T02:12:58;1.70;;;1.60;;
56629;SDS011;42502;40.732;-74.254;2023-07-30T02:14:59;1.50;;;1.40;;
56629;SDS011;42502;40.732;-74.254;2023-07-30T02:17:00;2.35;;;1.65;;
56629;SDS011;42502;40.732;-74.254;2023-07-30T02:19:03;1.60;;;1.50;;
56629;SDS011;42502;40.732;-74.254;2023-07-30T02:21:04;2.42;;;1.73;;
56629;SDS011;42502;40.732;-74.254;2023-07-30T02:23:05;1.83;;;1.73;;
56629;SDS011;42502;40.732;-74.254;2023-07-30T02:25:06;1.92;;;1.70;;
56629;SDS011;42502;40.732;-74.254;2023-07-30T02:27:07;1.70;;;1.60;;
56629;SDS011;42502;40.732;-74.254;2023-07-30T02:29:08;1.75;;;1.65;;
56629;SDS011;42502;40.732;-74.254;2023-07-30T02:31:08;1.73;;;1.63;;
56629;SDS011;42502;40.732;-74.254;2023-07-30T02:33:15;1.60;;;1.50;;
56629;SDS011;42502;40.732;-74.254;2023-07-30T02:35:16;1.70;;;1.60;;
56629;SDS011;42502;40.732;-74.254;2023-07-30T02:37:17;2.00;;;1.55;;
56629;SDS011;42502;40.732;-74.254;2023-07-30T02:39:20;1.48;;;1.38;;
56629;SDS011;42502;40.732;-74.254;2023-07-30T02:41:21;1.95;;;1.50;;
56629;SDS011;42502;40.732;-74.254;2023-07-30T02:43:24;1.70;;;1.60;;
56629;SDS011;42502;40.732;-74.254;2023-07-30T02:45:25;1.50;;;1.40;;
56629;SDS011;42502;40.732;-74.254;2023-07-30T02:47:26;1.63;;;1.52;;
56629;SDS011;42502;40.732;-74.254;2023-07-30T02:49:27;1.70;;;1.60;;
56629;SDS011;42502;40.732;-74.254;2023-07-30T02:51:31;1.50;;;1.40;;
56629;SDS011;42502;40.732;-74.254;2023-07-30T02:53:32;1.55;;;1.45;;
56629;SDS011;42502;40.732;-74.254;2023-07-30T02:55:32;1.65;;;1.40;;
56629;SDS011;42502;40.732;-74.254;2023-07-30T02:57:33;1.40;;;1.30;;
56629;SDS011;42502;40.732;-74.254;2023-07-30T02:59:34;1.40;;;1.30;;
56629;SDS011;42502;40.732;-74.254;2023-07-30T03:01:36;1.90;;;1.30;;
56629;SDS011;42502;40.732;-74.254;2023-07-30T03:03:37;1.35;;;1.23;;
56629;SDS011;42502;40.732;-74.254;2023-07-30T03:05:40;1.65;;;1.20;;
56629;SDS011;42502;40.732;-74.254;2023-07-30T03:07:42;1.60;;;1.50;;
56629;SDS011;42502;40.732;-74.254;2023-07-30T03:09:43;1.67;;;1.58;;
56629;SDS011;42502;40.732;-74.254;2023-07-30T03:11:44;1.50;;;1.27;;
56629;SDS011;42502;40.732;-74.254;2023-07-30T03:13:45;1.30;;;1.20;;
56629;SDS011;42502;40.732;-74.254;2023-07-30T03:15:45;1.48;;;1.38;;
56629;SDS011;42502;40.732;-74.254;2023-07-30T03:17:47;1.48;;;1.20;;
56629;SDS011;42502;40.732;-74.254;2023-07-30T03:19:47;1.30;;;1.20;;
56629;SDS011;42502;40.732;-74.254;2023-07-30T03:21:51;1.40;;;1.30;;
56629;SDS011;42502;40.732;-74.254;2023-07-30T03:23:51;2.05;;;1.30;;
56629;SDS011;42502;40.732;-74.254;2023-07-30T03:25:52;1.42;;;1.30;;
56629;SDS011;42502;40.732;-74.254;2023-07-30T03:27:53;1.33;;;1.23;;
56629;SDS011;42502;40.732;-74.254;2023-07-30T03:29:54;2.40;;;1.35;;
56629;SDS011;42502;40.732;-74.254;2023-07-30T03:31:55;1.27;;;1.17;;
56629;SDS011;42502;40.732;-74.254;2023-07-30T03:33:55;1.40;;;1.30;;
56629;SDS011;42502;40.732;-74.254;2023-07-30T03:35:59;1.40;;;1.30;;
56629;SDS011;42502;40.732;-74.254;2023-07-30T03:38:00;1.38;;;1.23;;
56629;SDS011;42502;40.732;-74.254;2023-07-30T03:40:01;1.40;;;1.30;;
56629;SDS011;42502;40.732;-74.254;2023-07-30T03:42:02;1.17;;;1.08;;
56629;SDS011;42502;40.732;-74.254;2023-07-30T03:44:06;1.20;;;1.10;;
56629;SDS011;42502;40.732;-74.254;2023-07-30T03:46:09;1.00;;;1.00;;
56629;SDS011;42502;40.732;-74.254;2023-07-30T03:48:12;1.73;;;1.00;;
56629;SDS011;42502;40.732;-74.254;2023-07-30T03:50:13;1.13;;;1.05;;
56629;SDS011;42502;40.732;-74.254;2023-07-30T03:52:14;1.45;;;1.08;;
56629;SDS011;42502;40.732;-74.254;2023-07-30T03:54:17;1.13;;;1.02;;
56629;SDS011;42502;40.732;-74.254;2023-07-30T03:56:18;1.08;;;1.08;;
56629;SDS011;42502;40.732;-74.254;2023-07-30T03:58:21;1.20;;;1.10;;
56629;SDS011;42502;40.732;-74.254;2023-07-30T04:00:25;1.27;;;1.00;;
56629;SDS011;42502;40.732;-74.254;2023-07-30T04:02:26;1.00;;;1.00;;
56629;SDS011;42502;40.732;-74.254;2023-07-30T04:04:27;1.13;;;1.02;;
56629;SDS011;42502;40.732;-74.254;2023-07-30T04:06:28;1.15;;;1.05;;
56629;SDS011;42502;40.732;-74.254;2023-07-30T04:08:28;1.20;;;1.10;;
56629;SDS011;42502;40.732;-74.254;2023-07-30T04:10:32;1.00;;;1.00;;
56629;SDS011;42502;40.732;-74.254;2023-07-30T04:12:33;1.10;;;1.00;;
56629;SDS011;42502;40.732;-74.254;2023-07-30T04:14:33;1.10;;;1.00;;
56629;SDS011;42502;40.732;-74.254;2023-07-30T04:16:34;1.10;;;1.00;;
56629;SDS011;42502;40.732;-74.254;2023-07-30T04:18:35;1.00;;;1.00;;
56629;SDS011;42502;40.732;-74.254;2023-07-30T04:20:36;1.08;;;1.00;;
56629;SDS011;42502;40.732;-74.254;2023-07-30T04:22:37;0.90;;;0.80;;
56629;SDS011;42502;40.732;-74.254;2023-07-30T04:24:38;0.90;;;0.90;;
56629;SDS011;42502;40.732;-74.254;2023-07-30T04:26:39;0.90;;;0.90;;
56629;SDS011;42502;40.732;-74.254;2023-07-30T04:28:39;1.27;;;1.08;;
56629;SDS011;42502;40.732;-74.254;2023-07-30T04:30:40;0.77;;;0.77;;
56629;SDS011;42502;40.732;-74.254;2023-07-30T04:32:41;1.08;;;0.98;;
56629;SDS011;42502;40.732;-74.254;2023-07-30T04:34:42;0.93;;;0.80;;
56629;SDS011;42502;40.732;-74.254;2023-07-30T04:36:45;1.00;;;0.90;;
56629;SDS011;42502;40.732;-74.254;2023-07-30T04:38:46;0.80;;;0.80;;
56629;SDS011;42502;40.732;-74.254;2023-07-30T04:40:47;0.90;;;0.90;;
56629;SDS011;42502;40.732;-74.254;2023-07-30T04:42:48;1.20;;;0.98;;
56629;SDS011;42502;40.732;-74.254;2023-07-30T04:44:51;1.38;;;1.00;;
56629;SDS011;42502;40.732;-74.254;2023-07-30T04:46:52;1.20;;;0.88;;
56629;SDS011;42502;40.732;-74.254;2023-07-30T04:48:53;1.70;;;0.80;;
56629;SDS011;42502;40.732;-74.254;2023-07-30T04:50:54;0.80;;;0.80;;
56629;SDS011;42502;40.732;-74.254;2023-07-30T04:52:54;1.02;;;1.00;;
56629;SDS011;42502;40.732;-74.254;2023-07-30T04:54:55;0.90;;;0.90;;
56629;SDS011;42502;40.732;-74.254;2023-07-30T04:56:56;0.80;;;0.80;;
56629;SDS011;42502;40.732;-74.254;2023-07-30T04:58:57;0.80;;;0.80;;
56629;SDS011;42502;40.732;-74.254;2023-07-30T05:00:58;0.90;;;0.90;;
56629;SDS011;42502;40.732;-74.254;2023-07-30T05:02:58;0.85;;;0.85;;
56629;SDS011;42502;40.732;-74.254;2023-07-30T05:04:59;0.80;;;0.80;;
56629;SDS011;42502;40.732;-74.254;2023-07-30T05:07:00;0.93;;;0.80;;
56629;SDS011;42502;40.732;-74.254;2023-07-30T05:09:03;0.80;;;0.80;;
56629;SDS011;42502;40.732;-74.254;2023-07-30T05:11:05;0.98;;;0.88;;
56629;SDS011;42502;40.732;-74.254;2023-07-30T05:13:06;0.70;;;0.70;;
56629;SDS011;42502;40.732;-74.254;2023-07-30T05:15:07;2.40;;;0.80;;
56629;SDS011;42502;40.732;-74.254;2023-07-30T05:17:08;1.15;;;0.80;;
56629;SDS011;42502;40.732;-74.254;2023-07-30T05:19:09;0.70;;;0.70;;
56629;SDS011;42502;40.732;-74.254;2023-07-30T05:21:10;1.02;;;0.60;;
56629;SDS011;42502;40.732;-74.254;2023-07-30T05:23:10;1.77;;;0.60;;
56629;SDS011;42502;40.732;-74.254;2023-07-30T05:25:11;2.33;;;0.70;;
56629;SDS011;42502;40.732;-74.254;2023-07-30T05:27:12;1.35;;;0.80;;
56629;SDS011;42502;40.732;-74.254;2023-07-30T05:29:13;0.75;;;0.73;;
56629;SDS011;42502;40.732;-74.254;2023-07-30T05:31:14;0.70;;;0.70;;
56629;SDS011;42502;40.732;-74.254;2023-07-30T05:33:15;0.70;;;0.70;;
56629;SDS011;42502;40.732;-74.254;2023-07-30T05:35:21;0.73;;;0.73;;
56629;SDS011;42502;40.732;-74.254;2023-07-30T05:37:22;0.70;;;0.70;;
56629;SDS011;42502;40.732;-74.254;2023-07-30T05:39:23;0.80;;;0.80;;
56629;SDS011;42502;40.732;-74.254;2023-07-30T05:41:24;0.70;;;0.70;;
56629;SDS011;42502;40.732;-74.254;2023-07-30T05:43:27;1.02;;;0.60;;
56629;SDS011;42502;40.732;-74.254;2023-07-30T05:45:28;1.20;;;0.70;;
56629;SDS011;42502;40.732;-74.254;2023-07-30T05:47:29;0.70;;;0.70;;
56629;SDS011;42502;40.732;-74.254;2023-07-30T05:49:33;0.70;;;0.70;;
56629;SDS011;42502;40.732;-74.254;2023-07-30T05:51:36;0.73;;;0.73;;
56629;SDS011;42502;40.732;-74.254;2023-07-30T05:53:40;0.85;;;0.60;;
56629;SDS011;42502;40.732;-74.254;2023-07-30T05:55:40;0.77;;;0.70;;
56629;SDS011;42502;40.732;-74.254;2023-07-30T05:57:41;0.52;;;0.52;;
56629;SDS011;42502;40.732;-74.254;2023-07-30T05:59:42;0.93;;;0.70;;
56629;SDS011;42502;40.732;-74.254;2023-07-30T06:01:47;0.67;;;0.67;;
56629;SDS011;42502;40.732;-74.254;2023-07-30T06:03:47;0.70;;;0.60;;
56629;SDS011;42502;40.732;-74.254;2023-07-30T06:05:49;1.08;;;0.60;;
56629;SDS011;42502;40.732;-74.254;2023-07-30T06:07:49;0.73;;;0.65;;
56629;SDS011;42502;40.732;-74.254;2023-07-30T06:09:55;0.75;;;0.63;;
56629;SDS011;42502;40.732;-74.254;2023-07-30T06:11:59;0.55;;;0.55;;
56629;SDS011;42502;40.732;-74.254;2023-07-30T06:14:00;0.88;;;0.60;;
56629;SDS011;42502;40.732;-74.254;2023-07-30T06:16:03;0.63;;;0.60;;
56629;SDS011;42502;40.732;-74.254;2023-07-30T06:18:04;1.30;;;0.60;;
56629;SDS011;42502;40.732;-74.254;2023-07-30T06:20:05;0.63;;;0.60;;
56629;SDS011;42502;40.732;-74.254;2023-07-30T06:22:06;0.60;;;0.60;;
56629;SDS011;42502;40.732;-74.254;2023-07-30T06:24:07;0.63;;;0.52;;
56629;SDS011;42502;40.732;-74.254;2023-07-30T06:26:08;0.50;;;0.50;;
56629;SDS011;42502;40.732;-74.254;2023-07-30T06:28:09;0.60;;;0.60;;
56629;SDS011;42502;40.732;-74.254;2023-07-30T06:30:10;0.60;;;0.57;;
56629;SDS011;42502;40.732;-74.254;2023-07-30T06:32:11;1.63;;;0.60;;
56629;SDS011;42502;40.732;-74.254;2023-07-30T06:34:12;0.50;;;0.50;;
56629;SDS011;42502;40.732;-74.254;2023-07-30T06:36:13;0.60;;;0.60;;
56629;SDS011;42502;40.732;-74.254;2023-07-30T06:38:14;0.80;;;0.60;;
56629;SDS011;42502;40.732;-74.254;2023-07-30T06:40:14;0.60;;;0.60;;
56629;SDS011;42502;40.732;-74.254;2023-07-30T06:42:15;0.60;;;0.60;;
56629;SDS011;42502;40.732;-74.254;2023-07-30T06:44:16;0.68;;;0.60;;
56629;SDS011;42502;40.732;-74.254;2023-07-30T06:46:17;0.50;;;0.50;;
56629;SDS011;42502;40.732;-74.254;2023-07-30T06:48:17;1.13;;;0.60;;
56629;SDS011;42502;40.732;-74.254;2023-07-30T06:50:18;0.60;;;0.60;;
56629;SDS011;42502;40.732;-74.254;2023-07-30T06:52:19;0.50;;;0.50;;
56629;SDS011;42502;40.732;-74.254;2023-07-30T06:54:23;0.70;;;0.52;;
56629;SDS011;42502;40.732;-74.254;2023-07-30T06:56:24;2.15;;;0.80;;
56629;SDS011;42502;40.732;-74.254;2023-07-30T06:58:28;1.10;;;0.50;;
56629;SDS011;42502;40.732;-74.254;2023-07-30T07:00:29;1.00;;;0.55;;
56629;SDS011;42502;40.732;-74.254;2023-07-30T07:02:30;0.60;;;0.60;;
56629;SDS011;42502;40.732;-74.254;2023-07-30T07:04:30;0.60;;;0.60;;
56629;SDS011;42502;40.732;-74.254;2023-07-30T07:06:31;0.70;;;0.60;;
56629;SDS011;42502;40.732;-74.254;2023-07-30T07:08:35;0.55;;;0.52;;
56629;SDS011;42502;40.732;-74.254;2023-07-30T07:10:36;0.60;;;0.60;;
56629;SDS011;42502;40.732;-74.254;2023-07-30T07:12:37;0.60;;;0.60;;
56629;SDS011;42502;40.732;-74.254;2023-07-30T07:14:38;0.60;;;0.57;;
56629;SDS011;42502;40.732;-74.254;2023-07-30T07:16:41;0.60;;;0.60;;
56629;SDS011;42502;40.732;-74.254;2023-07-30T07:18:41;0.60;;;0.55;;
56629;SDS011;42502;40.732;-74.254;2023-07-30T07:20:45;0.70;;;0.60;;
56629;SDS011;42502;40.732;-74.254;2023-07-30T07:22:46;0.73;;;0.60;;
56629;SDS011;42502;40.732;-74.254;2023-07-30T07:24:47;0.52;;;0.52;;
56629;SDS011;42502;40.732;-74.254;2023-07-30T07:26:48;0.50;;;0.50;;
56629;SDS011;42502;40.732;-74.254;2023-07-30T07:28:48;0.52;;;0.52;;
56629;SDS011;42502;40.732;-74.254;2023-07-30T07:30:55;0.80;;;0.60;;
56629;SDS011;42502;40.732;-74.254;2023-07-30T07:33:01;1.17;;;0.60;;
56629;SDS011;42502;40.732;-74.254;2023-07-30T07:35:02;0.73;;;0.60;;
56629;SDS011;42502;40.732;-74.254;2023-07-30T07:37:03;0.40;;;0.40;;
56629;SDS011;42502;40.732;-74.254;2023-07-30T07:39:05;0.40;;;0.40;;
56629;SDS011;42502;40.732;-74.254;2023-07-30T07:41:13;1.60;;;0.57;;
56629;SDS011;42502;40.732;-74.254;2023-07-30T07:43:18;1.45;;;0.60;;
56629;SDS011;42502;40.732;-74.254;2023-07-30T07:45:18;1.30;;;0.50;;
56629;SDS011;42502;40.732;-74.254;2023-07-30T07:47:19;0.93;;;0.50;;
56629;SDS011;42502;40.732;-74.254;2023-07-30T07:49:20;0.50;;;0.50;;
56629;SDS011;42502;40.732;-74.254;2023-07-30T07:51:21;0.60;;;0.60;;
56629;SDS011;42502;40.732;-74.254;2023-07-30T07:53:22;0.98;;;0.60;;
56629;SDS011;42502;40.732;-74.254;2023-07-30T07:55:22;0.47;;;0.47;;
56629;SDS011;42502;40.732;-74.254;2023-07-30T07:57:23;0.95;;;0.60;;
56629;SDS011;42502;40.732;-74.254;2023-07-30T07:59:26;0.60;;;0.60;;
56629;SDS011;42502;40.732;-74.254;2023-07-30T08:01:33;1.02;;;0.63;;
56629;SDS011;42502;40.732;-74.254;2023-07-30T08:03:34;0.50;;;0.50;;
56629;SDS011;42502;40.732;-74.254;2023-07-30T08:05:35;0.50;;;0.50;;
56629;SDS011;42502;40.732;-74.254;2023-07-30T08:07:36;0.65;;;0.50;;
56629;SDS011;42502;40.732;-74.254;2023-07-30T08:09:37;0.63;;;0.63;;
56629;SDS011;42502;40.732;-74.254;2023-07-30T08:11:38;0.50;;;0.50;;
56629;SDS011;42502;40.732;-74.254;2023-07-30T08:13:41;0.50;;;0.50;;
56629;SDS011;42502;40.732;-74.254;2023-07-30T08:15:42;0.60;;;0.50;;
56629;SDS011;42502;40.732;-74.254;2023-07-30T08:17:43;0.80;;;0.60;;
56629;SDS011;42502;40.732;-74.254;2023-07-30T08:19:47;0.60;;;0.60;;
56629;SDS011;42502;40.732;-74.254;2023-07-30T08:21:48;0.60;;;0.60;;
56629;SDS011;42502;40.732;-74.254;2023-07-30T08:23:48;0.60;;;0.60;;
56629;SDS011;42502;40.732;-74.254;2023-07-30T08:25:49;0.50;;;0.50;;
56629;SDS011;42502;40.732;-74.254;2023-07-30T08:27:50;0.63;;;0.60;;
56629;SDS011;42502;40.732;-74.254;2023-07-30T08:29:51;0.70;;;0.55;;
56629;SDS011;42502;40.732;-74.254;2023-07-30T08:31:54;0.60;;;0.60;;
56629;SDS011;42502;40.732;-74.254;2023-07-30T08:33:55;1.60;;;0.50;;
56629;SDS011;42502;40.732;-74.254;2023-07-30T08:35:56;0.60;;;0.60;;
56629;SDS011;42502;40.732;-74.254;2023-07-30T08:37:57;1.30;;;0.60;;
56629;SDS011;42502;40.732;-74.254;2023-07-30T08:39:58;0.60;;;0.60;;
56629;SDS011;42502;40.732;-74.254;2023-07-30T08:41:59;0.50;;;0.50;;
56629;SDS011;42502;40.732;-74.254;2023-07-30T08:43:59;0.57;;;0.57;;
56629;SDS011;42502;40.732;-74.254;2023-07-30T08:46:02;0.50;;;0.50;;
56629;SDS011;42502;40.732;-74.254;2023-07-30T08:48:03;0.73;;;0.57;;
56629;SDS011;42502;40.732;-74.254;2023-07-30T08:50:04;0.60;;;0.60;;
56629;SDS011;42502;40.732;-74.254;2023-07-30T08:52:07;0.65;;;0.60;;
56629;SDS011;42502;40.732;-74.254;2023-07-30T08:54:10;1.35;;;0.63;;
56629;SDS011;42502;40.732;-74.254;2023-07-30T08:56:12;0.60;;;0.55;;
56629;SDS011;42502;40.732;-74.254;2023-07-30T08:58:14;0.60;;;0.60;;
56629;SDS011;42502;40.732;-74.254;2023-07-30T09:00:17;0.73;;;0.65;;
56629;SDS011;42502;40.732;-74.254;2023-07-30T09:02:39;0.50;;;0.50;;
56629;SDS011;42502;40.732;-74.254;2023-07-30T09:04:45;0.50;;;0.50;;
56629;SDS011;42502;40.732;-74.254;2023-07-30T09:06:49;0.60;;;0.60;;
56629;SDS011;42502;40.732;-74.254;2023-07-30T09:08:50;0.68;;;0.68;;
56629;SDS011;42502;40.732;-74.254;2023-07-30T09:10:51;0.85;;;0.68;;
56629;SDS011;42502;40.732;-74.254;2023-07-30T09:12:52;0.65;;;0.65;;
56629;SDS011;42502;40.732;-74.254;2023-07-30T09:14:58;0.60;;;0.60;;
56629;SDS011;42502;40.732;-74.254;2023-07-30T09:17:00;0.65;;;0.52;;
56629;SDS011;42502;40.732;-74.254;2023-07-30T09:19:01;0.60;;;0.60;;
56629;SDS011;42502;40.732;-74.254;2023-07-30T09:21:02;0.60;;;0.60;;
56629;SDS011;42502;40.732;-74.254;2023-07-30T09:23:03;0.52;;;0.50;;
56629;SDS011;42502;40.732;-74.254;2023-07-30T09:25:03;0.60;;;0.50;;
56629;SDS011;42502;40.732;-74.254;2023-07-30T09:27:05;0.50;;;0.50;;
56629;SDS011;42502;40.732;-74.254;2023-07-30T09:29:09;0.60;;;0.50;;
56629;SDS011;42502;40.732;-74.254;2023-07-30T09:31:12;1.00;;;0.60;;
56629;SDS011;42502;40.732;-74.254;2023-07-30T09:33:13;0.60;;;0.60;;
56629;SDS011;42502;40.732;-74.254;2023-07-30T09:35:20;0.50;;;0.50;;
56629;SDS011;42502;40.732;-74.254;2023-07-30T09:37:22;0.65;;;0.60;;
56629;SDS011;42502;40.732;-74.254;2023-07-30T09:39:26;0.65;;;0.50;;
56629;SDS011;42502;40.732;-74.254;2023-07-30T09:41:27;0.77;;;0.70;;
56629;SDS011;42502;40.732;-74.254;2023-07-30T09:43:36;0.77;;;0.60;;
56629;SDS011;42502;40.732;-74.254;2023-07-30T09:45:40;0.50;;;0.50;;
56629;SDS011;42502;40.732;-74.254;2023-07-30T09:47:47;0.63;;;0.60;;
56629;SDS011;42502;40.732;-74.254;2023-07-30T09:49:48;0.50;;;0.50;;
56629;SDS011;42502;40.732;-74.254;2023-07-30T09:51:49;1.00;;;0.57;;
56629;SDS011;42502;40.732;-74.254;2023-07-30T09:53:55;0.50;;;0.50;;
56629;SDS011;42502;40.732;-74.254;2023-07-30T09:55:56;0.60;;;0.60;;
56629;SDS011;42502;40.732;-74.254;2023-07-30T09:57:57;0.68;;;0.68;;
56629;SDS011;42502;40.732;-74.254;2023-07-30T09:59:58;0.73;;;0.50;;
56629;SDS011;42502;40.732;-74.254;2023-07-30T10:01:59;0.60;;;0.60;;
56629;SDS011;42502;40.732;-74.254;2023-07-30T10:04:02;0.47;;;0.47;;
56629;SDS011;42502;40.732;-74.254;2023-07-30T10:06:09;0.50;;;0.50;;
56629;SDS011;42502;40.732;-74.254;2023-07-30T10:08:14;0.60;;;0.60;;
56629;SDS011;42502;40.732;-74.254;2023-07-30T10:10:21;0.50;;;0.50;;
56629;SDS011;42502;40.732;-74.254;2023-07-30T10:12:27;0.60;;;0.60;;
56629;SDS011;42502;40.732;-74.254;2023-07-30T10:14:34;0.60;;;0.60;;
56629;SDS011;42502;40.732;-74.254;2023-07-30T10:16:38;0.50;;;0.50;;
56629;SDS011;42502;40.732;-74.254;2023-07-30T10:18:39;0.70;;;0.60;;
56629;SDS011;42502;40.732;-74.254;2023-07-30T10:20:41;0.60;;;0.60;;
56629;SDS011;42502;40.732;-74.254;2023-07-30T10:22:53;0.50;;;0.50;;
56629;SDS011;42502;40.732;-74.254;2023-07-30T10:24:59;0.57;;;0.57;;
56629;SDS011;42502;40.732;-74.254;2023-07-30T10:27:07;0.93;;;0.60;;
56629;SDS011;42502;40.732;-74.254;2023-07-30T10:31:20;0.70;;;0.60;;
56629;SDS011;42502;40.732;-74.254;2023-07-30T10:33:52;0.60;;;0.60;;
56629;SDS011;42502;40.732;-74.254;2023-07-30T10:35:59;0.50;;;0.50;;
56629;SDS011;42502;40.732;-74.254;2023-07-30T10:38:22;0.50;;;0.50;;
56629;SDS011;42502;40.732;-74.254;2023-07-30T10:40:29;1.23;;;0.50;;
56629;SDS011;42502;40.732;-74.254;2023-07-30T10:42:33;1.88;;;0.80;;
56629;SDS011;42502;40.732;-74.254;2023-07-30T10:44:34;1.15;;;0.60;;
56629;SDS011;42502;40.732;-74.254;2023-07-30T10:46:35;0.60;;;0.60;;
56629;SDS011;42502;40.732;-74.254;2023-07-30T10:48:39;0.50;;;0.50;;
56629;SDS011;42502;40.732;-74.254;2023-07-30T10:50:42;0.50;;;0.50;;
56629;SDS011;42502;40.732;-74.254;2023-07-30T10:52:43;0.63;;;0.50;;
56629;SDS011;42502;40.732;-74.254;2023-07-30T10:54:44;0.90;;;0.50;;
56629;SDS011;42502;40.732;-74.254;2023-07-30T10:56:45;1.02;;;0.50;;
56629;SDS011;42502;40.732;-74.254;2023-07-30T10:58:51;0.50;;;0.50;;
56629;SDS011;42502;40.732;-74.254;2023-07-30T11:00:53;0.85;;;0.60;;
56629;SDS011;42502;40.732;-74.254;2023-07-30T11:02:57;0.50;;;0.50;;
56629;SDS011;42502;40.732;-74.254;2023-07-30T11:05:21;0.50;;;0.50;;
56629;SDS011;42502;40.732;-74.254;2023-07-30T11:07:21;1.25;;;0.55;;
56629;SDS011;42502;40.732;-74.254;2023-07-30T11:09:29;0.60;;;0.60;;
56629;SDS011;42502;40.732;-74.254;2023-07-30T11:11:31;0.50;;;0.50;;
56629;SDS011;42502;40.732;-74.254;2023-07-30T11:13:35;0.55;;;0.55;;
56629;SDS011;42502;40.732;-74.254;2023-07-30T11:15:40;0.60;;;0.50;;
56629;SDS011;42502;40.732;-74.254;2023-07-30T11:17:44;0.93;;;0.60;;
56629;SDS011;42502;40.732;-74.254;2023-07-30T11:19:46;0.60;;;0.50;;
56629;SDS011;42502;40.732;-74.254;2023-07-30T11:21:51;0.52;;;0.50;;
56629;SDS011;42502;40.732;-74.254;2023-07-30T11:23:54;0.50;;;0.50;;
56629;SDS011;42502;40.732;-74.254;2023-07-30T11:25:54;0.55;;;0.52;;
56629;SDS011;42502;40.732;-74.254;2023-07-30T11:27:55;0.50;;;0.50;;
56629;SDS011;42502;40.732;-74.254;2023-07-30T11:29:59;0.50;;;0.50;;
56629;SDS011;42502;40.732;-74.254;2023-07-30T11:32:05;1.52;;;0.50;;
56629;SDS011;42502;40.732;-74.254;2023-07-30T11:34:06;0.60;;;0.40;;
56629;SDS011;42502;40.732;-74.254;2023-07-30T11:36:08;0.50;;;0.40;;
56629;SDS011;42502;40.732;-74.254;2023-07-30T11:38:12;0.73;;;0.40;;
56629;SDS011;42502;40.732;-74.254;2023-07-30T11:40:14;0.50;;;0.50;;
56629;SDS011;42502;40.732;-74.254;2023-07-30T11:42:17;0.40;;;0.40;;
56629;SDS011;42502;40.732;-74.254;2023-07-30T11:44:31;0.50;;;0.50;;
56629;SDS011;42502;40.732;-74.254;2023-07-30T11:46:34;0.40;;;0.40;;
56629;SDS011;42502;40.732;-74.254;2023-07-30T11:49:14;1.35;;;0.50;;
56629;SDS011;42502;40.732;-74.254;2023-07-30T11:51:25;0.40;;;0.40;;
56629;SDS011;42502;40.732;-74.254;2023-07-30T11:53:46;0.55;;;0.55;;
56629;SDS011;42502;40.732;-74.254;2023-07-30T11:55:51;0.93;;;0.50;;
56629;SDS011;42502;40.732;-74.254;2023-07-30T11:57:52;0.57;;;0.40;;